Flight Track Log - Related Links

Times and Time Zones

All times are in EDT time to prevent confusion due to time zone crossing. See the SKW6492 flight status page for this flight to view local times or setup timezone preferences in your user account.

Time Position Orientation Groundspeed Altitude Reporting Facility
EDT Latitude Longitude Course Direction KTS MPH feet Rate Location/Type
Thu 09:26:15 PM 39.9500 -104.6833 348° North 206 237 7,800  Level Denver TRACON
Thu 09:27:15 PM 40.0167 -104.6667 11° North 244 281 9,900 2,105 Climbing Denver TRACON
Thu 09:28:00 PM 40.1154 -104.8908 347° North  Level Estimated
Thu 09:28:09 PM 40.0833 -104.6667 360° North 282 325 11,800  Level Denver TRACON
Thu 09:29:00 PM 40.1999 -104.9637 346° North  Level Estimated
Thu 09:29:15 PM 40.1667 -104.6833 351° North 289 333 14,100  Level Denver TRACON
Thu 09:30:00 PM 40.2843 -105.0368 346° North  Level Estimated
Thu 09:30:18 PM 40.2589 -104.7108 347° North 316 364 16,100  Level Denver Center
Thu 09:31:00 PM 40.3687 -105.1100 348° North  Level Estimated
Thu 09:31:20 PM 40.3464 -104.7353 348° North 319 367 18,000  Level Denver Center
Thu 09:32:22 PM 40.4361 -104.7578 349° North 330 380 19,800 1,742 Climbing Denver Center
Thu 09:33:24 PM 40.5322 -104.7842 348° North 326 375 21,600 1,597 Climbing Denver Center
Thu 09:34:26 PM 40.6256 -104.8081 349° North 339 390 23,100 1,210 Climbing Denver Center
Thu 09:35:28 PM 40.7144 -104.8672 333° Northwest 343 395 24,100 1,113 Climbing Denver Center
Thu 09:36:30 PM 40.7883 -104.9378 324° Northwest 330 380 25,400 919 Climbing Denver Center
Thu 09:37:32 PM 40.8644 -105.0136 323° Northwest 334 384 26,000 290 Climbing Denver Center
Thu 09:38:34 PM 40.9428 -105.0939 322° Northwest 348 400 26,000  Level Denver Center
Thu 09:39:36 PM 41.0311 -105.1850 322° Northwest 356 410 26,000  Level Denver Center
Thu 09:40:38 PM 41.1069 -105.2628 322° Northwest 359 413 26,000  Level Denver Center
Thu 09:41:40 PM 41.1956 -105.3522 323° Northwest 358 412 26,000  Level Denver Center
Thu 09:42:42 PM 41.2711 -105.4311 322° Northwest 360 414 26,000  Level Denver Center
Thu 09:43:44 PM 41.3586 -105.5217 322° Northwest 357 411 26,000  Level Denver Center
Thu 09:44:46 PM 41.4331 -105.5992 322° Northwest 355 409 26,000  Level Denver Center
Thu 09:45:48 PM 41.5186 -105.6858 323° Northwest 348 400 26,000  Level Denver Center
Thu 09:46:51 PM 41.5939 -105.7658 322° Northwest 358 412 26,000  Level Denver Center
Thu 09:47:53 PM 41.6681 -105.8439 322° Northwest 355 409 26,000  Level Denver Center
Thu 09:48:55 PM 41.7544 -105.9353 322° Northwest 354 407 26,000  Level Denver Center
Thu 09:49:57 PM 41.8317 -106.0161 322° Northwest 360 414 26,000  Level Denver Center
Thu 09:50:59 PM 41.9194 -106.1083 322° Northwest 359 413 26,000  Level Denver Center
Thu 09:52:01 PM 41.9950 -106.1889 322° Northwest 361 415 26,000  Level Denver Center
Thu 09:53:03 PM 42.0828 -106.2833 321° Northwest 361 415 26,000  Level Denver Center
Thu 09:54:05 PM 42.1569 -106.3631 321° Northwest 359 413 26,000  Level Denver Center
Thu 09:55:07 PM 42.2450 -106.4581 321° Northwest 361 415 26,000  Level Denver Center
Thu 09:56:09 PM 42.3250 -106.5439 322° Northwest 365 420 26,000  Level Denver Center
Thu 09:57:11 PM 42.3983 -106.6225 322° Northwest 366 421 26,000  Level Denver Center
Thu 09:58:12 PM 42.4858 -106.7175 321° Northwest 361 415 26,000  Level Denver Center
Thu 09:59:15 PM 42.5617 -106.7997 321° Northwest 363 418 26,000  Level Denver Center
Thu 10:00:17 PM 42.6547 -106.8861 326° Northwest 363 418 26,000  Level Denver Center
Thu 10:01:19 PM 42.7353 -106.9594 326° Northwest 364 419 26,000  Level Denver Center
Thu 10:02:21 PM 42.8314 -107.0439 327° Northwest 365 420 26,000  Level Denver Center
Thu 10:03:23 PM 42.9128 -107.1181 326° Northwest 367 422 26,000  Level Denver Center
Thu 10:03:55 PM 42.9506 -107.1550 324° Northwest 363 418 26,000  Level Salt Lake Center
Thu 10:04:57 PM 43.0519 -107.2444 327° Northwest 361 415 26,000  Level Salt Lake Center
Thu 10:05:59 PM 43.1361 -107.3200 327° Northwest 362 417 26,000  Level Salt Lake Center
Thu 10:07:01 PM 43.2189 -107.3969 326° Northwest 359 413 26,000  Level Salt Lake Center
Thu 10:08:02 PM 43.3036 -107.4736 327° Northwest 364 419 26,000  Level Salt Lake Center
Thu 10:09:04 PM 43.3847 -107.5514 325° Northwest 358 412 26,000  Level Salt Lake Center
Thu 10:10:06 PM 43.4669 -107.6272 326° Northwest 356 410 26,000  Level Salt Lake Center
Thu 10:11:08 PM 43.5497 -107.7036 326° Northwest 357 411 26,000  Level Salt Lake Center
Thu 10:12:09 PM 43.6486 -107.7953 326° Northwest 357 411 26,000  Level Salt Lake Center
Thu 10:13:11 PM 43.7328 -107.8694 328° Northwest 359 413 26,000  Level Salt Lake Center
Thu 10:14:13 PM 43.8156 -107.9464 326° Northwest 357 411 26,000  Level Salt Lake Center
Thu 10:15:14 PM 43.8981 -108.0233 326° Northwest 357 411 26,000  Level Salt Lake Center
Thu 10:16:16 PM 43.9817 -108.1011 326° Northwest 360 414 26,000 -968 Level Salt Lake Center
Thu 10:17:18 PM 44.0644 -108.1822 325° Northwest 363 418 24,000 -2,323 Descending Salt Lake Center
Thu 10:18:20 PM 44.1467 -108.2594 326° Northwest 358 412 21,200 -3,024 Descending Salt Lake Center
Thu 10:19:21 PM 44.2408 -108.3494 326° Northwest 346 398 17,800 -2,976 Descending Salt Lake Center
Thu 10:20:23 PM 44.3169 -108.4211 326° Northwest 339 390 15,100 -2,468 Descending Salt Lake Center
Thu 10:21:25 PM 44.3892 -108.4908 325° Northwest 329 379 12,700 -1,742 Descending Salt Lake Center
Thu 10:22:27 PM 44.4525 -108.5514 326° Northwest 306 352 11,500 -1,171 Descending Salt Lake Center
Thu 10:23:28 PM 44.5061 -108.6039 325° Northwest 266 306 10,300 -1,220 Descending Salt Lake Center
Thu 10:24:30 PM 44.5614 -108.6564 326° Northwest 249 287 9,000 -774 Descending Salt Lake Center
Thu 10:25:32 PM 44.6100 -108.7047 325° Northwest 235 270 8,700 -484 Descending Salt Lake Center
Thu 10:26:34 PM 44.6464 -108.7456 321° Northwest 200 230 8,000 -537 Descending Salt Lake Center
Thu 10:27:35 PM 44.6369 -108.8172 260° West 187 215 7,600 -244 Descending Salt Lake Center
Thu 10:28:37 PM 44.6086 -108.8708 233° Southwest 181 208 7,500 -339 Descending Salt Lake Center
Thu 10:29:39 PM 44.5817 -108.9181 231° Southwest 167 192 6,900 -677 Descending Salt Lake Center
Thu 10:30:41 PM 44.5544 -108.9656 231° Southwest 162 186 6,100 -732 Descending Salt Lake Center
Thu 10:31:42 PM 44.5269 -109.0136 231° Southwest 158 182 5,400 -689 Descending Salt Lake Center

Login

Don't have an account? Register now (free) for customized features, flight alerts, and more!